Hillsboro, Maryland
Current Conditions -  °F | °C
As of 10:50 AM on Wednesday 28 Jan 2015 (Local Time) from KESN Reporting Station
Clear Clear  
Wind Chill: 18°   Ceiling: Unl
Heat Index: 30°   Visibility: 10mi
Dew Point:   Wind: 18mph
Humidity: 40%   Direction: 330°NNW
Pressure: 30.23"   Gusts: 24mph
Location:  38.92°N, 75.94°W
Report Text: KESN 281550Z 33016G21KT 10SM SKC M01/M13 A3023
Loading
Personal Weather Stations






























Interactive Weather Map New forecast layout! Learn more

10-Day Weather Forecast

Advertisements
Track Severe Weather on mobile